Aktuální počasí v Česku a ve světě - METAR

Seznam meteostanic umístěných nejčasteji na letišti v ČR a ve světě

Vyhledat místa podle abecedy:
A B C D E F G H I J K L M N O P Q R S T U V W X Y Z

Filtrovat:

ID stanice:
a/nebo
Název místa (fulltext):
 
Místo (ID)Naposledy načteno 
Kadaň - Tušimice (Tusimice) 16.05.2021 06:00 UTC Zobrazit data
Místo: Kadaň - Tušimice
Teplota: 10 °C (pocitová: 6 °C)
Vítr: 3 m/s z(e) 260°
Počasí: skoro zataženo
Dohlednost: 35 km
Zákl. oblačnosti: 7/8 1080 m
Vlhkost: 76%
Karlovy Vary (K.Vary) 16.05.2021 06:00 UTC Zobrazit data
Místo: Karlovy Vary
Teplota: 8 °C (pocitová: 3.3 °C)
Vítr: 3 m/s z(e) 230°
Počasí: skoro zataženo
Dohlednost: 20 km
Zákl. oblačnosti: 6/8 510 m
Vlhkost: 76%
Kocelovice (Kocelovice) 16.05.2021 06:00 UTC Zobrazit data
Místo: Kocelovice
Teplota: 9 °C (pocitová: 3 °C)
Vítr: 6 m/s z(e) 250°
Počasí: skoro zataženo
Dohlednost: 40 km
Zákl. oblačnosti: 1/8 300 m;5/8 990 m
Vlhkost: 76%
Kopisty (Kopisty) 16.05.2021 06:00 UTC Zobrazit data
Místo: Kopisty
Teplota: 10 °C (pocitová: 6.9 °C)
Vítr: 2 m/s z(e) 190°
Počasí: skoro zataženo
Dohlednost: 15 km
Zákl. oblačnosti: 7/8 1230 m
Vlhkost: 100%
Kostelní Myslová (K.Myslova) 16.05.2021 06:00 UTC Zobrazit data
Místo: Kostelní Myslová
Teplota: 9 °C (pocitová: 5.6 °C)
Vítr: 2 m/s z(e) 0°
Počasí: skorojasno
Dohlednost: 55 km
Zákl. oblačnosti: 1/8 360 m
Vlhkost: 87%
Křešín - Kramolín (Kramolin) 16.05.2021 06:00 UTC Zobrazit data
Místo: Křešín - Kramolín
Teplota: 9 °C (pocitová: 3.4 °C)
Vítr: 5 m/s z(e) 260°
Počasí: skoro zataženo
Dohlednost: 35 km
Zákl. oblačnosti: 4/8 420 m;7/8 1110 m
Vlhkost: 82%
Kuchařovice - Znojmo (Kucharovic) 16.05.2021 06:00 UTC Zobrazit data
Místo: Kuchařovice - Znojmo
Teplota: 11 °C (pocitová: 5.8 °C)
Vítr: 6 m/s z(e) 280°
Počasí: skoro zataženo
Dohlednost: 50 km
Zákl. oblačnosti: 1/8 690 m;4/8 5400 m
Vlhkost: 77%
Kabul (OAKB) 16.05.2021 05:50 UTC Zobrazit METAR
OAKB 160550Z VRB07KT 9999 SCT050 BKN120 23/06 Q1020 RMK A3013 BLU BLU
Kajaani (EFKI) 16.05.2021 05:50 UTC Zobrazit METAR
EFKI 160550Z AUTO 07008KT 050V120 9999 BKN007 10/07 Q1007
Kardla (EEKA) 15.05.2021 07:50 UTC Zobrazit METAR
EEKA 150750Z 17008KT 140V220 9999 FEW015 14/09 Q1005
Karlsruhe/ Baden-Baden (EDSB) 16.05.2021 05:50 UTC Zobrazit METAR
EDSB 160550Z 21010KT 9999 BKN041 11/09 Q1006
Karup (EKKA) 16.05.2021 05:50 UTC Zobrazit METAR
EKKA 160550Z AUTO 05002KT 9999 OVC021/// 08/06 Q1001
Kathmandu (VNKT) 16.05.2021 05:50 UTC Zobrazit METAR
VNKT 160550Z 27008KT 9999 FEW025 29/12 Q1016 NOSIG
Katowice (EPKT) 16.05.2021 02:00 UTC Zobrazit METAR
EPKT 160200Z 13008KT CAVOK 11/09 Q1005
Kaunas (EYKA) 16.05.2021 05:50 UTC Zobrazit METAR
EYKA 160550Z 14003KT 110V190 9999 SCT024 15/11 Q1008
Kavala (LGKV) 16.05.2021 05:50 UTC Zobrazit METAR
LGKV 160550Z 00000KT 9999 FEW025 17/12 Q1008
Kazan (UWKD) Zatím nenačteno  
Kefallinia (LGKF) 16.05.2021 05:50 UTC Zobrazit METAR
LGKF 160550Z 33007KT 9999 FEW016 18/16 Q1013
Kemi (EFKE) 16.05.2021 05:50 UTC Zobrazit METAR
EFKE 160550Z AUTO 09006KT 050V120 CAVOK 09/06 Q1007
Kerkira (LGKR) 16.05.2021 05:50 UTC Zobrazit METAR
LGKR 160550Z 00000KT 9999 FEW030 16/13 Q1012 NOSIG
Kerry (EIKY) 15.05.2021 18:00 UTC Zobrazit METAR
EIKY 151800Z 24007KT 9999 BKN034 12/08 Q0994
Khartoum (HSSS) 11.05.2021 09:00 UTC Zobrazit METAR
HSSS 110900Z 24006KT CAVOK 36/15 Q1012 NOSIG
Kigali (HRYR) 16.05.2021 06:00 UTC Zobrazit METAR
HRYR 160600Z 00000KT 9999 FEW025 22/18 Q1022 NOSIG
Kingston (MKJP) 16.05.2021 06:00 UTC Zobrazit METAR
MKJP 160600Z 30004KT 9999 FEW022 27/23 Q1013
Kingstown (TVSV) 13.12.2019 20:43 UTC Zobrazit METAR
TVSV 132043Z 12005G18KT 4000 SHRA BKN014 27/23 Q1010
Kinshasa (FZAA) 16.05.2021 06:00 UTC Zobrazit METAR
FZAA 160600Z 00000KT 4000 BR SCT016 24/23 Q1012 BECMG 6000
Kittila (EFKT) 16.05.2021 02:50 UTC Zobrazit METAR
EFKT 160250Z AUTO 04005KT 9999 -SHRA OVC004 02/02 Q1009
Klagenfurt (LOWK) 16.05.2021 05:50 UTC Zobrazit METAR
LOWK 160550Z 31004KT 280V350 9999 FEW005 SCT065 11/09 Q1008 NOSIG
Kortrijk-Wevelgem (EBKT) Zatím nenačteno  
Kosice (LZKZ) 16.05.2021 06:00 UTC Zobrazit METAR
LZKZ 160600Z 01004KT 9999 -RA FEW002 SCT019 OVC045 12/11 Q1007 NOSIG
Krakow (EPKK) 16.05.2021 06:00 UTC Zobrazit METAR
EPKK 160600Z 17005KT 120V210 9999 FEW053 14/11 Q1005
Kuala Lumpur (WMKK) 15.05.2021 18:00 UTC Zobrazit METAR
WMKK 151800Z VRB02KT 9999 FEW030 27/24 Q1007 NOSIG
Kuopio (EFKU) 16.05.2021 05:50 UTC Zobrazit METAR
EFKU 160550Z AUTO 11003KT 040V150 CAVOK 14/10 Q1006
Kuressaare (EEKE) 15.05.2021 10:50 UTC Zobrazit METAR
EEKE 151050Z 22006KT 180V310 9999 FEW002 SCT005 11/10 Q1006
Kuwait (OKBK) 16.05.2021 06:00 UTC Zobrazit METAR
OKBK 160600Z 30005KT 8000 SKC 38/02 Q1005 NOSIG
Kyiv (UKBB) Zatím nenačteno  
Reklama

Reklama


Newslettter

Počasí na Váš email

Emaily jsou bez reklamy a bez spamu



Odhlásit newsletter



Kontaktujte nás

Kontaktujte Slunečno.cz

Kontaktujte provozovatele Slunecno.cz

Další české internetové stránky (nejen) o počasí najdete v katalogu TOPlist - weby o počasí nebo vyhledejte na internetu, co jste tu na Počasí Slunečno Slunečnu zatím nenašli:
Přidat mezzi oblíbené stránkyPřidat Slunečno.cz do oblíbených | Nastavit jako HOMEPAGENastavit Slunečno.cz jako HOMEPAGE

Posunout stránku nahoru Posunout stránku nahoru Posunout stránku nahoru
Reklama